Time;durP1;ratioP1;P1;durP2;ratioP2;P2;SDS_P1;SDS_P2;PMS_P1;PMS_P2;Temp;Humidity;BMP_temperature;BMP_pressure;BME280_temperature;BME280_humidity;BME280_pressure;Samples;Min_cycle;Max_cycle;Signal;HPM_P1;HPM_P2
2022/10/05 00:01:42;;;;;;;2.53;2.10;;;;;;;;;;4975715;28;20176;-77
2022/10/05 00:04:19;;;;;;;3.30;1.90;;;;;;;;;;4975880;28;20180;-77
2022/10/05 00:06:50;;;;;;;4.27;2.00;;;;;;;;;;4975716;28;20172;-78
2022/10/05 00:09:18;;;;;;;4.33;2.00;;;;;;;;;;4975891;28;20230;-77
2022/10/05 00:11:44;;;;;;;2.97;1.97;;;;;;;;;;4975500;28;20184;-77
2022/10/05 00:14:21;;;;;;;3.33;2.10;;;;;;;;;;4975986;28;20271;-77
2022/10/05 00:16:47;;;;;;;4.50;2.07;;;;;;;;;;4958615;28;20227;-77
2022/10/05 00:19:31;;;;;;;3.87;2.10;;;;;;;;;;4959469;28;20203;-77
2022/10/05 00:22:09;;;;;;;2.13;1.93;;;;;;;;;;4975207;28;20180;-78
2022/10/05 00:24:35;;;;;;;3.63;1.93;;;;;;;;;;4975419;28;20184;-77
2022/10/05 00:27:10;;;;;;;3.60;2.23;;;;;;;;;;4975573;28;20746;-78
2022/10/05 00:29:37;;;;;;;3.13;1.97;;;;;;;;;;4975484;28;20199;-77
2022/10/05 00:32:03;;;;;;;3.17;2.30;;;;;;;;;;4975273;28;20180;-77
2022/10/05 00:34:32;;;;;;;3.37;2.40;;;;;;;;;;4959255;28;20245;-78
2022/10/05 00:36:58;;;;;;;3.87;2.27;;;;;;;;;;4958867;28;20639;-77
2022/10/05 00:39:24;;;;;;;3.97;2.40;;;;;;;;;;4975039;28;20255;-77
2022/10/05 00:42:09;;;;;;;4.17;2.57;;;;;;;;;;4959603;28;20187;-77
2022/10/05 00:44:57;;;;;;;3.43;2.30;;;;;;;;;;4975233;28;20183;-77
2022/10/05 00:47:23;;;;;;;4.60;3.07;;;;;;;;;;4975312;28;20195;-77
2022/10/05 00:50:05;;;;;;;4.60;2.40;;;;;;;;;;4975165;28;20203;-78
2022/10/05 00:52:34;;;;;;;4.10;2.40;;;;;;;;;;4974447;28;20583;-78
2022/10/05 00:55:07;;;;;;;4.50;2.80;;;;;;;;;;4974670;28;20685;-78
2022/10/05 00:57:36;;;;;;;5.13;2.70;;;;;;;;;;4976154;28;20182;-77
2022/10/05 01:00:13;;;;;;;3.37;2.50;;;;;;;;;;4976148;28;20180;-77
2022/10/05 01:02:39;;;;;;;3.40;2.70;;;;;;;;;;4975590;28;20183;-77
2022/10/05 01:05:10;;;;;;;4.10;2.80;;;;;;;;;;4974886;28;20230;-77
2022/10/05 01:07:46;;;;;;;4.03;2.80;;;;;;;;;;4974649;28;20179;-78
2022/10/05 01:10:15;;;;;;;3.47;2.67;;;;;;;;;;4974477;28;20191;-77
2022/10/05 01:12:53;;;;;;;4.33;2.70;;;;;;;;;;4974964;28;20176;-77
2022/10/05 01:15:31;;;;;;;4.10;2.60;;;;;;;;;;4975624;28;20211;-78
2022/10/05 01:18:02;;;;;;;3.97;2.23;;;;;;;;;;4974461;28;20666;-78
2022/10/05 01:20:34;;;;;;;3.13;2.30;;;;;;;;;;4975714;28;20186;-77
2022/10/05 01:23:24;;;;;;;4.27;2.60;;;;;;;;;;4974168;28;20184;-77
2022/10/05 01:25:50;;;;;;;3.07;2.50;;;;;;;;;;4974421;28;20187;-77
2022/10/05 01:28:20;;;;;;;3.43;2.43;;;;;;;;;;4974130;28;20196;-78
2022/10/05 01:30:52;;;;;;;5.80;2.63;;;;;;;;;;4974293;28;20271;-77
2022/10/05 01:33:21;;;;;;;3.40;2.60;;;;;;;;;;4973890;28;20183;-77
2022/10/05 01:35:50;;;;;;;4.37;2.53;;;;;;;;;;4958280;28;20696;-78
2022/10/05 01:38:26;;;;;;;5.87;2.93;;;;;;;;;;4973745;28;20215;-78
2022/10/05 01:41:11;;;;;;;3.00;2.70;;;;;;;;;;4974263;28;20183;-77
2022/10/05 01:43:37;;;;;;;6.20;2.60;;;;;;;;;;4974217;28;20176;-78
2022/10/05 01:46:14;;;;;;;3.80;2.67;;;;;;;;;;4974441;28;20184;-77
2022/10/05 01:48:53;;;;;;;3.83;2.90;;;;;;;;;;4973856;28;20200;-77
2022/10/05 01:51:24;;;;;;;3.73;2.87;;;;;;;;;;4975096;28;20187;-77
2022/10/05 01:54:13;;;;;;;3.77;2.77;;;;;;;;;;4974250;28;20211;-77
2022/10/05 01:56:45;;;;;;;3.40;3.00;;;;;;;;;;4974043;28;20282;-78
2022/10/05 01:59:25;;;;;;;4.00;2.93;;;;;;;;;;4973905;28;20211;-78
2022/10/05 02:01:57;;;;;;;3.77;3.40;;;;;;;;;;4973833;28;20179;-77
2022/10/05 02:04:29;;;;;;;4.33;3.70;;;;;;;;;;4973857;28;20241;-77
2022/10/05 02:06:56;;;;;;;4.20;3.50;;;;;;;;;;4974011;28;20183;-77
2022/10/05 02:09:25;;;;;;;5.13;3.93;;;;;;;;;;4957779;28;20579;-77
2022/10/05 02:11:58;;;;;;;5.10;3.97;;;;;;;;;;4973889;28;20176;-77
2022/10/05 02:14:37;;;;;;;5.67;4.30;;;;;;;;;;4973900;28;20190;-77
2022/10/05 02:17:06;;;;;;;6.27;4.20;;;;;;;;;;4973998;28;20583;-77
2022/10/05 02:19:39;;;;;;;5.80;3.83;;;;;;;;;;4974675;28;20540;-78
2022/10/05 02:22:06;;;;;;;7.57;3.90;;;;;;;;;;4973350;28;20183;-77
2022/10/05 02:24:38;;;;;;;6.30;3.97;;;;;;;;;;4957245;28;20181;-77
2022/10/05 02:27:05;;;;;;;4.57;3.47;;;;;;;;;;4957396;28;20671;-77
2022/10/05 02:29:32;;;;;;;7.83;3.97;;;;;;;;;;4973440;28;20236;-77
2022/10/05 02:32:04;;;;;;;5.13;3.50;;;;;;;;;;4957703;28;20196;-77
2022/10/05 02:34:37;;;;;;;7.00;4.27;;;;;;;;;;4973407;28;20184;-77
2022/10/05 02:37:11;;;;;;;9.03;4.07;;;;;;;;;;4973088;28;20278;-77
2022/10/05 02:39:56;;;;;;;6.07;3.90;;;;;;;;;;4974345;28;20238;-77
2022/10/05 02:42:27;;;;;;;5.67;3.90;;;;;;;;;;4977217;28;20183;-77
2022/10/05 02:45:10;;;;;;;4.90;3.80;;;;;;;;;;4977691;28;20186;-77
2022/10/05 02:47:36;;;;;;;5.87;4.07;;;;;;;;;;4977103;28;20185;-77
2022/10/05 02:50:23;;;;;;;5.17;4.00;;;;;;;;;;4977091;28;20188;-77
2022/10/05 02:52:56;;;;;;;6.17;3.93;;;;;;;;;;4976966;28;20643;-77
2022/10/05 02:55:41;;;;;;;4.80;3.90;;;;;;;;;;4976644;28;20200;-78
2022/10/05 02:58:14;;;;;;;5.47;3.83;;;;;;;;;;4977145;28;20212;-78
2022/10/05 03:00:46;;;;;;;6.07;4.23;;;;;;;;;;4960454;28;20188;-77
2022/10/05 03:03:21;;;;;;;4.80;3.77;;;;;;;;;;4978259;28;20191;-77
2022/10/05 03:05:54;;;;;;;4.37;3.53;;;;;;;;;;4976591;28;20176;-77
2022/10/05 03:08:32;;;;;;;4.83;4.00;;;;;;;;;;4976678;28;20208;-77
2022/10/05 03:11:04;;;;;;;5.47;4.40;;;;;;;;;;4977887;28;20216;-77
2022/10/05 03:13:37;;;;;;;7.17;4.13;;;;;;;;;;4977846;28;20183;-77
2022/10/05 03:16:14;;;;;;;6.20;4.30;;;;;;;;;;4976623;28;20208;-77
2022/10/05 03:18:55;;;;;;;5.30;3.80;;;;;;;;;;4977849;28;20542;-77
2022/10/05 03:21:39;;;;;;;4.77;3.40;;;;;;;;;;4976355;28;20172;-77
2022/10/05 03:24:28;;;;;;;3.93;3.47;;;;;;;;;;4976658;28;20180;-77
2022/10/05 03:27:00;;;;;;;4.97;3.60;;;;;;;;;;4976284;28;20185;-77
2022/10/05 03:29:42;;;;;;;4.60;3.83;;;;;;;;;;4976373;28;20200;-78
2022/10/05 03:32:29;;;;;;;5.10;3.67;;;;;;;;;;4976516;28;20216;-77
2022/10/05 03:35:04;;;;;;;5.37;3.60;;;;;;;;;;4969266;28;20212;-77
2022/10/05 03:37:36;;;;;;;4.70;3.63;;;;;;;;;;4975727;28;20241;-78
2022/10/05 03:40:05;;;;;;;4.03;3.57;;;;;;;;;;4976540;28;20176;-77
2022/10/05 03:42:34;;;;;;;5.80;3.60;;;;;;;;;;4975884;28;20176;-77
2022/10/05 03:45:05;;;;;;;4.87;3.33;;;;;;;;;;4976229;28;20188;-77
2022/10/05 03:47:50;;;;;;;4.23;3.37;;;;;;;;;;4976264;28;20231;-77
2022/10/05 03:50:23;;;;;;;4.37;3.33;;;;;;;;;;4976157;28;20237;-78
2022/10/05 03:53:12;;;;;;;5.47;3.50;;;;;;;;;;4976000;28;20187;-77
2022/10/05 03:56:00;;;;;;;4.57;3.50;;;;;;;;;;4970628;28;20307;-77
2022/10/05 03:58:44;;;;;;;3.80;3.17;;;;;;;;;;4977176;28;20212;-78
2022/10/05 04:01:14;;;;;;;4.80;3.40;;;;;;;;;;4975843;28;20184;-77
2022/10/05 04:03:49;;;;;;;4.43;3.53;;;;;;;;;;4977379;28;20177;-77
2022/10/05 04:06:21;;;;;;;4.17;3.30;;;;;;;;;;4975784;28;20184;-77
2022/10/05 04:08:51;;;;;;;3.83;3.27;;;;;;;;;;4975636;28;20287;-77
2022/10/05 04:11:36;;;;;;;3.30;3.00;;;;;;;;;;4975284;28;20181;-77
2022/10/05 04:14:06;;;;;;;3.27;2.90;;;;;;;;;;4975777;28;20184;-77
2022/10/05 04:16:38;;;;;;;3.90;2.87;;;;;;;;;;4976926;28;20578;-77
2022/10/05 04:19:12;;;;;;;5.37;3.67;;;;;;;;;;4959653;28;20208;-77
2022/10/05 04:21:45;;;;;;;3.53;3.10;;;;;;;;;;4975460;28;20266;-77
2022/10/05 04:24:31;;;;;;;5.57;3.20;;;;;;;;;;4975705;28;20738;-77
2022/10/05 04:27:17;;;;;;;4.30;3.20;;;;;;;;;;4975230;28;20311;-77
2022/10/05 04:29:49;;;;;;;3.77;3.40;;;;;;;;;;4974999;28;20196;-77
2022/10/05 04:32:15;;;;;;;4.27;3.30;;;;;;;;;;4974771;28;20651;-77
2022/10/05 04:34:47;;;;;;;4.73;3.10;;;;;;;;;;4974886;28;20210;-77
2022/10/05 04:37:40;;;;;;;60.13;19.73;;;;;;;;;;4974196;28;20180;-77
2022/10/05 04:40:09;;;;;;;42.93;17.50;;;;;;;;;;4951508;28;20188;-76
2022/10/05 04:42:43;;;;;;;17.50;6.67;;;;;;;;;;4973092;28;20177;-77
2022/10/05 04:45:14;;;;;;;8.70;5.63;;;;;;;;;;4973570;28;20190;-76
2022/10/05 04:47:49;;;;;;;12.20;6.93;;;;;;;;;;4973261;28;20176;-76
2022/10/05 04:50:15;;;;;;;7.90;4.63;;;;;;;;;;4973264;28;20186;-76
2022/10/05 04:53:00;;;;;;;8.67;7.47;;;;;;;;;;4973318;28;20184;-76
2022/10/05 04:55:26;;;;;;;6.40;5.80;;;;;;;;;;4973250;28;20200;-76
2022/10/05 04:58:11;;;;;;;8.00;7.20;;;;;;;;;;4972915;28;20207;-76
2022/10/05 05:00:45;;;;;;;7.80;5.70;;;;;;;;;;4973138;28;20540;-77
2022/10/05 05:03:17;;;;;;;7.53;4.50;;;;;;;;;;4973661;28;20172;-77
2022/10/05 05:05:49;;;;;;;3.63;3.27;;;;;;;;;;4972035;28;20227;-77
2022/10/05 05:08:34;;;;;;;4.87;3.53;;;;;;;;;;4973289;28;20235;-77
2022/10/05 05:11:06;;;;;;;5.37;3.57;;;;;;;;;;4973666;28;20180;-76
2022/10/05 05:13:52;;;;;;;4.70;3.60;;;;;;;;;;4973166;28;20177;-76
2022/10/05 05:19:33;;;;;;;4.67;4.23;;;;;;;;;;4974229;28;20697;-76
2022/10/05 05:22:06;;;;;;;6.63;4.10;;;;;;;;;;4972996;28;20179;-76
2022/10/05 05:24:32;;;;;;;4.97;4.37;;;;;;;;;;4973408;28;20227;-76
2022/10/05 05:26:58;;;;;;;7.27;5.03;;;;;;;;;;4972926;28;20176;-76
2022/10/05 05:29:33;;;;;;;7.10;4.87;;;;;;;;;;4973213;28;20196;-76
2022/10/05 05:32:19;;;;;;;8.40;6.23;;;;;;;;;;4972785;28;20172;-76
2022/10/05 05:34:48;;;;;;;7.47;5.53;;;;;;;;;;4972741;28;20576;-76
2022/10/05 05:37:17;;;;;;;5.37;4.40;;;;;;;;;;4973267;28;20179;-76
2022/10/05 05:40:02;;;;;;;6.83;4.30;;;;;;;;;;4972709;28;20218;-76
2022/10/05 05:42:28;;;;;;;6.30;4.90;;;;;;;;;;4972654;28;20183;-76
2022/10/05 05:44:55;;;;;;;6.17;4.40;;;;;;;;;;4972893;28;20188;-77
2022/10/05 05:47:29;;;;;;;5.00;4.50;;;;;;;;;;4972906;28;20603;-76
2022/10/05 05:49:55;;;;;;;6.60;4.07;;;;;;;;;;4973078;28;20271;-76
2022/10/05 05:52:23;;;;;;;5.40;3.80;;;;;;;;;;4972886;28;20180;-76
2022/10/05 05:55:07;;;;;;;5.30;4.00;;;;;;;;;;4956684;28;20262;-76
2022/10/05 05:57:37;;;;;;;17.57;14.90;;;;;;;;;;4973780;28;20678;-75
2022/10/05 06:00:20;;;;;;;7.90;7.17;;;;;;;;;;4972926;28;20168;-76
2022/10/05 06:02:49;;;;;;;7.57;6.17;;;;;;;;;;4972750;28;20219;-76
2022/10/05 06:05:34;;;;;;;11.60;7.53;;;;;;;;;;4972916;28;20282;-76
2022/10/05 06:08:11;;;;;;;61.43;13.80;;;;;;;;;;4972926;28;20671;-76
2022/10/05 06:10:37;;;;;;;13.20;5.57;;;;;;;;;;4972877;28;20539;-76
2022/10/05 06:13:06;;;;;;;5.40;3.80;;;;;;;;;;4973186;28;20185;-76
2022/10/05 06:15:53;;;;;;;7.97;3.37;;;;;;;;;;4977036;28;20207;-76
2022/10/05 06:18:20;;;;;;;3.97;3.10;;;;;;;;;;4977527;28;20192;-75
2022/10/05 06:20:46;;;;;;;2.90;2.67;;;;;;;;;;4976814;28;20274;-76
2022/10/05 06:23:25;;;;;;;3.43;2.93;;;;;;;;;;4976465;28;20636;-76
2022/10/05 06:25:54;;;;;;;5.67;3.20;;;;;;;;;;4976512;28;20176;-76
2022/10/05 06:28:20;;;;;;;5.20;4.03;;;;;;;;;;4976534;28;20208;-76
2022/10/05 06:31:05;;;;;;;5.80;4.87;;;;;;;;;;4960174;28;20185;-77
2022/10/05 06:33:34;;;;;;;6.73;4.90;;;;;;;;;;4976117;28;20328;-77
2022/10/05 06:36:20;;;;;;;5.17;4.67;;;;;;;;;;4975899;28;20201;-76
2022/10/05 06:38:56;;;;;;;6.70;5.03;;;;;;;;;;4937214;28;20200;-75
2022/10/05 06:41:28;;;;;;;5.50;4.77;;;;;;;;;;4975836;28;20175;-76
2022/10/05 06:43:54;;;;;;;7.67;5.30;;;;;;;;;;4977304;28;20168;-76
2022/10/05 06:46:39;;;;;;;6.77;5.40;;;;;;;;;;4976054;28;20872;-76
2022/10/05 06:49:14;;;;;;;7.00;5.27;;;;;;;;;;4975764;28;20659;-76
2022/10/05 06:51:55;;;;;;;6.27;5.67;;;;;;;;;;4975982;28;20220;-76
2022/10/05 06:54:29;;;;;;;8.00;6.33;;;;;;;;;;4975815;28;20200;-76
2022/10/05 06:57:01;;;;;;;8.27;6.47;;;;;;;;;;4976922;28;20536;-76
2022/10/05 06:59:27;;;;;;;9.57;6.70;;;;;;;;;;4976746;28;20204;-76
2022/10/05 07:02:02;;;;;;;9.80;7.70;;;;;;;;;;4975503;28;20185;-76
2022/10/05 07:04:40;;;;;;;10.83;8.00;;;;;;;;;;4975616;28;20176;-76
2022/10/05 07:07:29;;;;;;;11.80;7.70;;;;;;;;;;4975931;28;20191;-76
2022/10/05 07:09:58;;;;;;;11.47;7.70;;;;;;;;;;4965477;28;20184;-76
2022/10/05 07:12:30;;;;;;;11.93;7.30;;;;;;;;;;4975268;28;20557;-76
2022/10/05 07:15:15;;;;;;;9.60;6.93;;;;;;;;;;4975245;28;20275;-76
2022/10/05 07:17:56;;;;;;;10.23;7.70;;;;;;;;;;4975067;28;20173;-76
2022/10/05 07:20:37;;;;;;;9.47;7.27;;;;;;;;;;4975324;28;20167;-76
2022/10/05 07:23:20;;;;;;;9.47;6.37;;;;;;;;;;4975391;28;20615;-76
2022/10/05 07:25:50;;;;;;;12.93;7.20;;;;;;;;;;4974613;28;20239;-76
2022/10/05 07:28:31;;;;;;;9.43;6.60;;;;;;;;;;4975011;28;20675;-76
2022/10/05 07:31:06;;;;;;;9.73;6.50;;;;;;;;;;4975436;28;20184;-76
2022/10/05 07:33:46;;;;;;;10.37;6.90;;;;;;;;;;4976279;28;20160;-76
2022/10/05 07:39:12;;;;;;;7.30;6.30;;;;;;;;;;4976171;28;20263;-76
2022/10/05 07:41:44;;;;;;;8.53;6.50;;;;;;;;;;4975073;28;20254;-76
2022/10/05 07:44:13;;;;;;;9.33;6.63;;;;;;;;;;4974983;28;20181;-76
2022/10/05 07:46:58;;;;;;;8.97;6.27;;;;;;;;;;4975184;28;20208;-76
2022/10/05 07:49:29;;;;;;;10.00;7.23;;;;;;;;;;4974949;28;20207;-76
2022/10/05 07:51:58;;;;;;;9.40;6.63;;;;;;;;;;4974998;28;20214;-76
2022/10/05 07:54:27;;;;;;;9.03;6.67;;;;;;;;;;4975023;28;20176;-76
2022/10/05 07:56:55;;;;;;;9.47;7.47;;;;;;;;;;4974873;28;20189;-76
2022/10/05 07:59:27;;;;;;;10.07;7.97;;;;;;;;;;4958363;28;20644;-76
2022/10/05 08:02:04;;;;;;;9.17;7.30;;;;;;;;;;4974711;28;20173;-76
2022/10/05 08:04:34;;;;;;;9.37;7.37;;;;;;;;;;4974796;28;20536;-76
2022/10/05 08:07:02;;;;;;;9.80;7.43;;;;;;;;;;4975955;28;20180;-76
2022/10/05 08:09:44;;;;;;;9.80;7.00;;;;;;;;;;4974584;28;20251;-76
2022/10/05 08:12:24;;;;;;;9.47;6.90;;;;;;;;;;4974471;28;20179;-76
2022/10/05 08:14:58;;;;;;;9.07;6.63;;;;;;;;;;4973958;28;20208;-76
2022/10/05 08:17:57;;;;;;;7.67;6.57;;;;;;;;;;4974099;28;20177;-76
2022/10/05 08:20:39;;;;;;;8.23;6.17;;;;;;;;;;4974339;28;20172;-76
2022/10/05 08:23:22;;;;;;;9.17;6.87;;;;;;;;;;4975209;28;20176;-76
2022/10/05 08:26:07;;;;;;;9.60;6.57;;;;;;;;;;4974198;28;20267;-76
2022/10/05 08:28:38;;;;;;;8.07;6.50;;;;;;;;;;4974357;28;20211;-76
2022/10/05 08:31:07;;;;;;;7.77;6.37;;;;;;;;;;4958308;28;20214;-76
2022/10/05 08:33:40;;;;;;;10.53;6.87;;;;;;;;;;4973848;28;20785;-76
2022/10/05 08:36:10;;;;;;;8.77;6.77;;;;;;;;;;4973941;28;20192;-76
2022/10/05 08:38:36;;;;;;;12.43;7.43;;;;;;;;;;4973288;28;20200;-76
2022/10/05 08:41:22;;;;;;;12.87;7.90;;;;;;;;;;4974074;28;20263;-76
2022/10/05 08:44:26;;;;;;;8.10;6.57;;;;;;;;;;4935206;28;20220;-76
2022/10/05 08:47:08;;;;;;;9.53;6.60;;;;;;;;;;4974000;28;20172;-76
2022/10/05 08:49:37;;;;;;;9.27;6.33;;;;;;;;;;4973875;28;20610;-76
2022/10/05 08:52:21;;;;;;;9.00;6.60;;;;;;;;;;4974625;28;20255;-76
2022/10/05 08:55:06;;;;;;;7.10;6.03;;;;;;;;;;4973489;28;20184;-76
2022/10/05 08:57:52;;;;;;;7.83;6.00;;;;;;;;;;4973593;28;20275;-76
2022/10/05 09:00:19;;;;;;;11.43;7.20;;;;;;;;;;4973788;28;20175;-76
2022/10/05 09:02:56;;;;;;;6.90;5.70;;;;;;;;;;4973634;28;20176;-76
2022/10/05 09:05:32;;;;;;;8.07;6.00;;;;;;;;;;4973359;28;20164;-76
2022/10/05 09:08:16;;;;;;;7.03;5.20;;;;;;;;;;4973282;28;20679;-76
2022/10/05 09:11:02;;;;;;;7.00;5.30;;;;;;;;;;4973375;28;20180;-76
2022/10/05 09:13:43;;;;;;;7.30;5.23;;;;;;;;;;4973402;28;20189;-76
2022/10/05 09:19:32;;;;;;;5.73;5.10;;;;;;;;;;4974262;28;20195;-76
2022/10/05 09:22:15;;;;;;;5.27;4.70;;;;;;;;;;4972942;28;20186;-76
2022/10/05 09:24:44;;;;;;;6.13;4.97;;;;;;;;;;4973273;28;20577;-76
2022/10/05 09:27:15;;;;;;;6.63;4.97;;;;;;;;;;4973301;28;20180;-76
2022/10/05 09:30:00;;;;;;;5.10;4.53;;;;;;;;;;4974229;28;20274;-76
2022/10/05 09:32:47;;;;;;;4.90;4.40;;;;;;;;;;4973250;28;20184;-76
2022/10/05 09:35:32;;;;;;;5.53;4.30;;;;;;;;;;4972822;28;20548;-76
2022/10/05 09:38:05;;;;;;;6.30;4.67;;;;;;;;;;4973294;28;20196;-76
2022/10/05 09:40:43;;;;;;;5.97;4.90;;;;;;;;;;4973139;28;20186;-76
2022/10/05 09:43:09;;;;;;;4.50;4.10;;;;;;;;;;4972751;28;20164;-76
2022/10/05 09:45:40;;;;;;;4.97;3.87;;;;;;;;;;4972812;28;20283;-76
2022/10/05 09:48:06;;;;;;;8.93;4.33;;;;;;;;;;4972586;28;20204;-76
2022/10/05 09:50:48;;;;;;;5.03;4.10;;;;;;;;;;4972966;28;20191;-77
2022/10/05 09:53:31;;;;;;;6.77;4.00;;;;;;;;;;4972595;28;20180;-76
2022/10/05 09:56:08;;;;;;;5.00;3.67;;;;;;;;;;4972658;28;20199;-76
2022/10/05 09:58:55;;;;;;;5.13;4.03;;;;;;;;;;4973931;28;20215;-76
2022/10/05 10:01:36;;;;;;;4.10;3.70;;;;;;;;;;4972510;28;20643;-76
2022/10/05 10:04:23;;;;;;;4.07;3.40;;;;;;;;;;4972833;28;20172;-77
2022/10/05 10:07:12;;;;;;;3.63;3.30;;;;;;;;;;4973925;28;20263;-76
2022/10/05 10:09:44;;;;;;;3.57;3.27;;;;;;;;;;4962395;28;20208;-76
2022/10/05 10:12:20;;;;;;;4.07;3.40;;;;;;;;;;4972282;28;20180;-75
2022/10/05 10:14:48;;;;;;;3.57;3.27;;;;;;;;;;4972802;28;20168;-76
2022/10/05 10:17:35;;;;;;;3.87;2.97;;;;;;;;;;4973565;28;20168;-75
2022/10/05 10:20:21;;;;;;;4.30;3.17;;;;;;;;;;4972616;28;20252;-75
2022/10/05 10:22:57;;;;;;;4.23;2.70;;;;;;;;;;4933643;28;20201;-75
2022/10/05 10:25:23;;;;;;;3.50;2.67;;;;;;;;;;4973743;28;20165;-76
2022/10/05 10:27:53;;;;;;;2.80;2.60;;;;;;;;;;4973579;28;20251;-76
2022/10/05 10:30:22;;;;;;;3.03;2.77;;;;;;;;;;4972673;28;20180;-76
2022/10/05 10:33:10;;;;;;;3.00;2.50;;;;;;;;;;4972156;28;20187;-76
2022/10/05 10:35:44;;;;;;;2.40;2.20;;;;;;;;;;4972363;28;20193;-76
2022/10/05 10:38:29;;;;;;;3.10;2.67;;;;;;;;;;4972287;28;20283;-76
2022/10/05 10:41:01;;;;;;;3.43;2.20;;;;;;;;;;4972546;28;20239;-77
2022/10/05 10:43:40;;;;;;;4.10;2.57;;;;;;;;;;4972494;28;20200;-77
2022/10/05 10:46:06;;;;;;;2.67;2.47;;;;;;;;;;4972499;28;20600;-77
2022/10/05 10:49:05;;;;;;;2.57;2.37;;;;;;;;;;4972110;28;20201;-76
2022/10/05 10:51:40;;;;;;;2.60;2.30;;;;;;;;;;4930426;28;20189;-77
2022/10/05 10:54:15;;;;;;;3.40;2.27;;;;;;;;;;4972437;28;20179;-76
2022/10/05 10:56:51;;;;;;;2.87;2.40;;;;;;;;;;4973366;28;20235;-76
2022/10/05 10:59:26;;;;;;;3.10;2.40;;;;;;;;;;4972260;28;20208;-76
2022/10/05 11:02:02;;;;;;;3.27;2.40;;;;;;;;;;4974883;28;20202;-76
2022/10/05 11:04:45;;;;;;;2.53;2.33;;;;;;;;;;4975729;28;20270;-76
2022/10/05 11:07:13;;;;;;;2.60;2.23;;;;;;;;;;4976864;28;20184;-76
2022/10/05 11:09:48;;;;;;;2.87;2.27;;;;;;;;;;4975887;28;20196;-76
2022/10/05 11:12:33;;;;;;;3.00;2.67;;;;;;;;;;5013360;23;20240;-76
2022/10/05 11:15:11;;;;;;;2.57;2.37;;;;;;;;;;4976238;28;20200;-76
2022/10/05 11:17:57;;;;;;;2.30;2.10;;;;;;;;;;4975143;28;20649;-75
2022/10/05 11:20:43;;;;;;;4.70;2.50;;;;;;;;;;4976145;28;20176;-77
2022/10/05 11:23:09;;;;;;;4.17;2.27;;;;;;;;;;4973894;28;20274;-76
2022/10/05 11:25:44;;;;;;;3.27;2.20;;;;;;;;;;4976035;28;20544;-76
2022/10/05 11:28:26;;;;;;;3.10;2.10;;;;;;;;;;4974683;28;20643;-75
2022/10/05 11:31:04;;;;;;;2.50;2.30;;;;;;;;;;4974661;28;20215;-75
2022/10/05 11:33:36;;;;;;;2.40;2.20;;;;;;;;;;4974775;28;20192;-75
2022/10/05 11:36:20;;;;;;;2.73;2.40;;;;;;;;;;4974429;28;20729;-75
2022/10/05 11:38:53;;;;;;;2.50;2.17;;;;;;;;;;4974480;28;20173;-75
2022/10/05 11:41:31;;;;;;;2.53;2.10;;;;;;;;;;4974238;28;20204;-76
2022/10/05 11:44:19;;;;;;;3.13;2.27;;;;;;;;;;4974457;28;20267;-76
2022/10/05 11:46:58;;;;;;;4.17;2.40;;;;;;;;;;4974423;28;20187;-76
2022/10/05 11:49:31;;;;;;;3.20;2.40;;;;;;;;;;4974317;28;20234;-76
2022/10/05 11:52:15;;;;;;;2.50;2.27;;;;;;;;;;4975339;28;20207;-76
2022/10/05 11:55:05;;;;;;;3.50;2.30;;;;;;;;;;4974201;28;20187;-76
2022/10/05 11:57:37;;;;;;;2.43;2.10;;;;;;;;;;4974268;28;20631;-76
2022/10/05 12:00:31;;;;;;;2.43;2.23;;;;;;;;;;4975151;28;20635;-75
2022/10/05 12:03:09;;;;;;;2.93;2.17;;;;;;;;;;4974574;28;20177;-76
2022/10/05 12:05:50;;;;;;;3.90;2.13;;;;;;;;;;4974051;28;20212;-76
2022/10/05 12:08:26;;;;;;;2.60;2.40;;;;;;;;;;4973896;28;20192;-76
2022/10/05 12:11:10;;;;;;;2.40;2.20;;;;;;;;;;4974890;28;20211;-76
2022/10/05 12:13:40;;;;;;;3.27;2.00;;;;;;;;;;4973943;28;20603;-75
2022/10/05 12:16:16;;;;;;;3.50;2.30;;;;;;;;;;4973550;28;20208;-76
2022/10/05 12:18:45;;;;;;;2.40;2.20;;;;;;;;;;4973876;28;20176;-76
2022/10/05 12:21:14;;;;;;;2.63;2.10;;;;;;;;;;4973563;28;20199;-76
2022/10/05 12:23:46;;;;;;;3.03;2.17;;;;;;;;;;4975173;28;20227;-76
2022/10/05 12:26:34;;;;;;;3.03;2.10;;;;;;;;;;4974910;28;20260;-76
2022/10/05 12:29:12;;;;;;;2.30;2.10;;;;;;;;;;4957711;28;20622;-76
2022/10/05 12:31:53;;;;;;;3.70;2.23;;;;;;;;;;4973237;28;20196;-76
2022/10/05 12:34:31;;;;;;;2.87;2.50;;;;;;;;;;4973449;28;20646;-76
2022/10/05 12:37:16;;;;;;;2.50;2.30;;;;;;;;;;4973470;28;20258;-76
2022/10/05 12:39:42;;;;;;;3.40;2.20;;;;;;;;;;4973367;28;20172;-75
2022/10/05 12:42:25;;;;;;;2.45;2.25;;;;;;;;;;4972990;28;20204;-76
2022/10/05 12:44:53;;;;;;;2.53;2.33;;;;;;;;;;4973404;28;20200;-76
2022/10/05 12:47:32;;;;;;;3.33;2.20;;;;;;;;;;4973247;28;20173;-76
2022/10/05 12:50:16;;;;;;;3.38;2.67;;;;;;;;;;4974448;28;20177;-76
2022/10/05 12:53:01;;;;;;;4.57;2.42;;;;;;;;;;4972991;28;20172;-76
2022/10/05 12:55:27;;;;;;;2.80;2.60;;;;;;;;;;4973023;28;20641;-75
2022/10/05 12:57:53;;;;;;;3.42;2.42;;;;;;;;;;4973082;28;20175;-76
2022/10/05 13:00:19;;;;;;;4.38;2.95;;;;;;;;;;4973319;28;20204;-78
2022/10/05 13:02:47;;;;;;;4.15;2.67;;;;;;;;;;4973395;28;20176;-78
2022/10/05 13:05:12;;;;;;;4.78;2.33;;;;;;;;;;4957678;28;20718;-76
2022/10/05 13:07:43;;;;;;;2.47;2.22;;;;;;;;;;4973110;28;20183;-76
2022/10/05 13:10:31;;;;;;;2.40;2.20;;;;;;;;;;4973140;28;20230;-76
2022/10/05 13:12:57;;;;;;;2.90;2.53;;;;;;;;;;4972817;28;20195;-76
2022/10/05 13:15:29;;;;;;;2.97;2.63;;;;;;;;;;4972482;28;20200;-77
2022/10/05 13:17:58;;;;;;;3.55;2.30;;;;;;;;;;4972822;28;20263;-76
2022/10/05 13:20:53;;;;;;;2.97;2.35;;;;;;;;;;4972936;28;20168;-76
2022/10/05 13:23:21;;;;;;;2.92;2.13;;;;;;;;;;4938149;28;20181;-76
2022/10/05 13:26:02;;;;;;;4.78;2.20;;;;;;;;;;4972647;28;20168;-76
2022/10/05 13:28:51;;;;;;;3.55;2.58;;;;;;;;;;4973922;28;20265;-76
2022/10/05 13:31:19;;;;;;;3.03;2.30;;;;;;;;;;4954350;28;20204;-76
2022/10/05 13:33:51;;;;;;;3.08;2.38;;;;;;;;;;4972593;28;20180;-76
2022/10/05 13:36:17;;;;;;;2.53;2.30;;;;;;;;;;4972442;28;20200;-76
2022/10/05 13:38:46;;;;;;;3.50;2.80;;;;;;;;;;4972304;28;20180;-76
2022/10/05 13:41:24;;;;;;;3.67;2.50;;;;;;;;;;4972268;28;20192;-76
2022/10/05 13:44:09;;;;;;;5.68;2.08;;;;;;;;;;4972432;28;20172;-76
2022/10/05 13:46:38;;;;;;;2.80;2.30;;;;;;;;;;4972236;28;20212;-76
2022/10/05 13:49:04;;;;;;;4.07;2.30;;;;;;;;;;4972575;28;20271;-76
2022/10/05 13:51:40;;;;;;;5.20;2.22;;;;;;;;;;4972131;28;20203;-76
2022/10/05 13:54:16;;;;;;;3.55;2.30;;;;;;;;;;4973550;28;20172;-76
2022/10/05 13:56:58;;;;;;;3.70;2.50;;;;;;;;;;4972031;28;20298;-76
2022/10/05 13:59:32;;;;;;;4.90;2.50;;;;;;;;;;4972130;28;20176;-76
2022/10/05 14:02:01;;;;;;;2.83;2.40;;;;;;;;;;4972100;28;20219;-76
2022/10/05 14:04:28;;;;;;;3.67;2.67;;;;;;;;;;4973472;28;20192;-76
2022/10/05 14:06:55;;;;;;;2.97;2.33;;;;;;;;;;4956170;28;20180;-76
2022/10/05 14:09:21;;;;;;;4.28;2.45;;;;;;;;;;4971982;28;20252;-76
2022/10/05 14:12:05;;;;;;;2.80;2.50;;;;;;;;;;4971757;28;20220;-76
2022/10/05 14:14:32;;;;;;;3.42;2.35;;;;;;;;;;4973242;28;20647;-76
2022/10/05 14:16:59;;;;;;;3.58;2.60;;;;;;;;;;4956074;28;20196;-75
2022/10/05 14:19:27;;;;;;;4.70;2.80;;;;;;;;;;4973193;28;20172;-76
2022/10/05 14:21:59;;;;;;;2.90;2.70;;;;;;;;;;4971663;28;20203;-76
2022/10/05 14:24:34;;;;;;;3.05;2.80;;;;;;;;;;4972234;28;20649;-76
2022/10/05 14:27:09;;;;;;;3.03;2.70;;;;;;;;;;4971937;28;20182;-76
2022/10/05 14:29:37;;;;;;;3.05;2.50;;;;;;;;;;4971973;28;20187;-76
2022/10/05 14:32:14;;;;;;;3.45;2.40;;;;;;;;;;4971557;28;20196;-76
2022/10/05 14:35:06;;;;;;;4.15;2.80;;;;;;;;;;4971818;28;20689;-76
2022/10/05 14:37:42;;;;;;;4.40;2.40;;;;;;;;;;4975666;28;20269;-75
2022/10/05 14:40:40;;;;;;;3.45;2.78;;;;;;;;;;4975613;28;20176;-76
2022/10/05 14:43:18;;;;;;;3.13;2.60;;;;;;;;;;4953869;28;20188;-76
2022/10/05 14:45:57;;;;;;;3.10;2.70;;;;;;;;;;4976965;28;20180;-76
2022/10/05 14:48:27;;;;;;;4.40;2.92;;;;;;;;;;4975534;28;20286;-76
2022/10/05 14:51:03;;;;;;;3.10;2.80;;;;;;;;;;4975403;28;20196;-76
2022/10/05 14:53:39;;;;;;;3.92;2.70;;;;;;;;;;4975599;28;20187;-76
2022/10/05 14:56:06;;;;;;;3.85;2.55;;;;;;;;;;4975381;28;20658;-76
2022/10/05 14:58:44;;;;;;;2.70;2.50;;;;;;;;;;4975285;28;20574;-76
2022/10/05 15:01:17;;;;;;;4.15;2.60;;;;;;;;;;4975670;28;20192;-76
2022/10/05 15:03:49;;;;;;;2.45;2.10;;;;;;;;;;4975107;28;20173;-76
2022/10/05 15:06:21;;;;;;;2.70;2.50;;;;;;;;;;4975370;28;20184;-76
2022/10/05 15:09:01;;;;;;;2.80;2.50;;;;;;;;;;4975348;28;20230;-76
2022/10/05 15:11:49;;;;;;;3.55;3.00;;;;;;;;;;4976167;28;20211;-76
2022/10/05 15:14:19;;;;;;;3.72;2.70;;;;;;;;;;4974996;28;20176;-76
2022/10/05 15:16:45;;;;;;;3.25;2.65;;;;;;;;;;4975725;28;20200;-76
2022/10/05 15:19:19;;;;;;;3.10;2.13;;;;;;;;;;4959042;28;20176;-76
2022/10/05 15:21:45;;;;;;;5.70;2.50;;;;;;;;;;4974717;28;20282;-76
2022/10/05 15:24:16;;;;;;;3.53;2.40;;;;;;;;;;4974827;28;20184;-76
2022/10/05 15:26:56;;;;;;;4.28;2.67;;;;;;;;;;4974947;28;20184;-76
2022/10/05 15:29:26;;;;;;;5.28;2.33;;;;;;;;;;4974660;28;20286;-76
2022/10/05 15:32:03;;;;;;;2.42;2.20;;;;;;;;;;4974485;28;20258;-76
2022/10/05 15:34:34;;;;;;;2.67;2.38;;;;;;;;;;4974949;28;20196;-76
2022/10/05 15:37:06;;;;;;;2.85;1.80;;;;;;;;;;4975701;28;20188;-76
2022/10/05 15:39:55;;;;;;;2.45;1.90;;;;;;;;;;4975798;28;20175;-76
2022/10/05 15:42:29;;;;;;;2.22;1.80;;;;;;;;;;4968918;28;20607;-76